Time;durP1;ratioP1;P1;durP2;ratioP2;P2;SDS_P1;SDS_P2;PMS_P1;PMS_P2;Temp;Humidity;BMP_temperature;BMP_pressure;BME280_temperature;BME280_humidity;BME280_pressure;Samples;Min_cycle;Max_cycle;Signal;HPM_P1;HPM_P2
2023/11/20 00:00:43;;;;;;;6.03;2.73;;;19.20;73.50;;;;;;5085424;28;20490;-78
2023/11/20 00:03:13;;;;;;;4.90;2.80;;;19.20;73.70;;;;;;5092085;28;20440;-77
2023/11/20 00:05:41;;;;;;;6.10;2.67;;;19.20;73.60;;;;;;5095234;28;20448;-77
2023/11/20 00:08:09;;;;;;;5.63;2.77;;;19.20;73.60;;;;;;5093892;28;20448;-78
2023/11/20 00:10:38;;;;;;;2.90;2.30;;;19.20;73.70;;;;;;5087022;28;20473;-77
2023/11/20 00:13:07;;;;;;;5.90;2.97;;;19.20;73.80;;;;;;5093716;28;20506;-77
2023/11/20 00:15:36;;;;;;;3.20;2.47;;;19.20;73.70;;;;;;5094479;28;20445;-77
2023/11/20 00:18:05;;;;;;;4.27;2.87;;;19.20;73.60;;;;;;5089988;28;20450;-78
2023/11/20 00:20:34;;;;;;;6.20;3.03;;;19.20;73.60;;;;;;5093353;28;20448;-79
2023/11/20 00:23:02;;;;;;;4.40;2.40;;;19.20;73.80;;;;;;5087937;28;20476;-78
2023/11/20 00:25:29;;;;;;;5.17;2.40;;;19.20;73.70;;;;;;5092897;28;20437;-78
2023/11/20 00:27:57;;;;;;;3.30;2.60;;;19.20;73.50;;;;;;5088340;28;20495;-77
2023/11/20 00:30:26;;;;;;;7.70;2.50;;;19.20;73.60;;;;;;5087078;28;20485;-76
2023/11/20 00:32:54;;;;;;;2.93;2.50;;;19.20;73.80;;;;;;5092545;28;20472;-78
2023/11/20 00:35:22;;;;;;;8.80;2.80;;;19.20;73.80;;;;;;5083054;28;20432;-77
2023/11/20 00:37:51;;;;;;;4.00;2.73;;;19.20;73.90;;;;;;5089371;28;20445;-77
2023/11/20 00:40:19;;;;;;;3.93;2.50;;;19.20;74.00;;;;;;5091217;28;20500;-77
2023/11/20 00:42:46;;;;;;;4.30;2.67;;;19.20;74.10;;;;;;5089500;28;20516;-77
2023/11/20 00:45:14;;;;;;;4.93;2.80;;;19.30;74.00;;;;;;5096690;28;20443;-78
2023/11/20 00:47:42;;;;;;;5.73;3.10;;;19.20;73.90;;;;;;5093153;28;20472;-78
2023/11/20 00:50:11;;;;;;;4.33;2.33;;;19.20;73.80;;;;;;5092408;28;20508;-76
2023/11/20 00:52:39;;;;;;;4.70;2.70;;;19.20;74.00;;;;;;5090163;28;20486;-78
2023/11/20 00:55:10;;;;;;;4.00;2.77;;;19.30;74.20;;;;;;5090454;28;20543;-78
2023/11/20 00:57:39;;;;;;;4.70;2.73;;;19.30;74.10;;;;;;5090630;28;20452;-78
2023/11/20 01:00:11;;;;;;;4.97;2.73;;;19.30;74.20;;;;;;5084875;28;20468;-79
2023/11/20 01:02:40;;;;;;;6.13;2.90;;;19.30;74.00;;;;;;5087113;28;20441;-78
2023/11/20 01:05:09;;;;;;;3.37;2.27;;;19.30;73.90;;;;;;5089430;28;20839;-78
2023/11/20 01:07:37;;;;;;;5.97;2.30;;;19.30;73.80;;;;;;5088440;28;20445;-78
2023/11/20 01:10:08;;;;;;;4.93;2.43;;;19.30;73.80;;;;;;5086835;28;20495;-79
2023/11/20 01:12:37;;;;;;;4.07;2.33;;;19.30;73.80;;;;;;5092144;28;20479;-78
2023/11/20 01:15:06;;;;;;;8.63;2.90;;;19.30;73.80;;;;;;5083297;28;20434;-78
2023/11/20 01:17:35;;;;;;;5.93;2.93;;;19.30;73.80;;;;;;5089174;28;20448;-78
2023/11/20 01:20:04;;;;;;;3.40;2.53;;;19.30;73.90;;;;;;5089918;28;20679;-76
2023/11/20 01:22:32;;;;;;;5.77;2.77;;;19.30;73.60;;;;;;5085491;28;20488;-77
2023/11/20 01:25:00;;;;;;;2.77;2.47;;;19.30;74.00;;;;;;5090563;28;20429;-77
2023/11/20 01:27:29;;;;;;;3.30;2.40;;;19.30;73.60;;;;;;5084625;28;20487;-77
2023/11/20 01:29:57;;;;;;;2.90;2.30;;;19.30;73.70;;;;;;5092978;28;20460;-77
2023/11/20 01:32:25;;;;;;;3.33;2.40;;;19.30;74.00;;;;;;5093504;28;20532;-77
2023/11/20 01:34:53;;;;;;;3.40;2.20;;;19.30;73.80;;;;;;5092614;28;20453;-76
2023/11/20 01:37:21;;;;;;;2.93;2.40;;;19.30;73.90;;;;;;5090728;28;20532;-77
2023/11/20 01:39:49;;;;;;;2.90;2.30;;;19.30;74.00;;;;;;5084054;28;20483;-77
2023/11/20 01:42:19;;;;;;;2.40;2.13;;;19.30;73.90;;;;;;5090906;28;20465;-77
2023/11/20 01:44:51;;;;;;;4.40;2.40;;;19.30;73.80;;;;;;5092172;28;20445;-79
2023/11/20 01:47:25;;;;;;;5.57;2.53;;;19.30;73.60;;;;;;5094599;28;20506;-78
2023/11/20 01:49:53;;;;;;;5.57;2.90;;;19.30;74.00;;;;;;5094124;28;20518;-78
2023/11/20 01:52:21;;;;;;;4.50;2.63;;;19.30;73.60;;;;;;5095204;28;20479;-78
2023/11/20 01:54:49;;;;;;;3.60;2.57;;;19.30;73.70;;;;;;5096483;28;20476;-78
2023/11/20 01:57:18;;;;;;;2.83;2.07;;;19.30;73.60;;;;;;5094821;28;20457;-78
2023/11/20 01:59:46;;;;;;;4.83;2.60;;;19.30;73.70;;;;;;5099392;28;20465;-78
2023/11/20 02:02:15;;;;;;;3.17;2.30;;;19.30;74.00;;;;;;5096538;28;20447;-79
2023/11/20 02:04:44;;;;;;;2.90;1.90;;;19.30;74.10;;;;;;5094495;28;20428;-78
2023/11/20 02:07:11;;;;;;;3.03;1.83;;;19.30;73.90;;;;;;5093810;28;20429;-78
2023/11/20 02:09:39;;;;;;;2.50;2.10;;;19.30;73.80;;;;;;5092868;28;20452;-78
2023/11/20 02:12:08;;;;;;;4.10;2.30;;;19.30;74.00;;;;;;5092894;28;20471;-79
2023/11/20 02:14:37;;;;;;;4.53;2.17;;;19.30;73.50;;;;;;5094017;28;20541;-78
2023/11/20 02:17:05;;;;;;;4.27;2.53;;;19.30;73.90;;;;;;5090822;28;20457;-80
2023/11/20 02:19:34;;;;;;;2.20;2.00;;;19.30;73.90;;;;;;5094907;28;20468;-78
2023/11/20 02:22:04;;;;;;;3.20;2.20;;;19.30;73.80;;;;;;5075143;28;20443;-78
2023/11/20 02:24:32;;;;;;;8.13;2.40;;;19.30;73.60;;;;;;5084548;28;20433;-78
2023/11/20 02:27:08;;;;;;;2.13;1.93;;;19.20;74.00;;;;;;5093599;28;20458;-78
2023/11/20 02:29:46;;;;;;;2.37;2.00;;;19.30;74.00;;;;;;5093032;28;20469;-78
2023/11/20 02:32:14;;;;;;;3.20;2.10;;;19.30;73.70;;;;;;5092681;28;20507;-77
2023/11/20 02:34:43;;;;;;;4.63;2.13;;;19.30;74.00;;;;;;5091998;28;20476;-77
2023/11/20 02:37:11;;;;;;;2.80;1.90;;;19.30;74.20;;;;;;5092652;28;20449;-77
2023/11/20 02:39:39;;;;;;;3.77;2.40;;;19.30;74.00;;;;;;5092822;28;20464;-78
2023/11/20 02:42:07;;;;;;;2.50;2.10;;;19.30;73.80;;;;;;5093387;28;20432;-77
2023/11/20 02:44:37;;;;;;;6.63;2.03;;;19.30;74.10;;;;;;5085202;28;20456;-77
2023/11/20 02:47:07;;;;;;;2.47;1.90;;;19.30;74.20;;;;;;5092990;28;20498;-78
2023/11/20 02:49:35;;;;;;;5.23;2.40;;;19.30;73.90;;;;;;5085070;28;20465;-78
2023/11/20 02:52:05;;;;;;;2.60;1.97;;;19.30;74.00;;;;;;5090373;28;20480;-78
2023/11/20 02:54:32;;;;;;;4.30;2.17;;;19.30;74.00;;;;;;5092558;28;20440;-77
2023/11/20 02:57:00;;;;;;;4.50;2.30;;;19.30;74.00;;;;;;5092807;28;20455;-78
2023/11/20 02:59:29;;;;;;;2.07;1.90;;;19.30;74.10;;;;;;5092445;28;20492;-77
2023/11/20 03:01:56;;;;;;;2.93;2.00;;;19.30;74.10;;;;;;5092275;28;20494;-78
2023/11/20 03:04:26;;;;;;;3.63;2.30;;;19.30;74.10;;;;;;5092579;28;20539;-78
2023/11/20 03:06:54;;;;;;;5.37;2.30;;;19.30;73.90;;;;;;5092185;28;20449;-78
2023/11/20 03:09:22;;;;;;;4.40;1.97;;;19.30;74.20;;;;;;5090267;28;20560;-77
2023/11/20 03:11:50;;;;;;;5.83;1.80;;;19.30;74.00;;;;;;5080476;28;20465;-78
2023/11/20 03:14:18;;;;;;;3.53;2.30;;;19.30;74.20;;;;;;5089620;28;20441;-78
2023/11/20 03:16:46;;;;;;;3.10;2.40;;;19.30;74.30;;;;;;5092438;28;20529;-78
2023/11/20 03:19:15;;;;;;;2.40;2.03;;;19.40;74.40;;;;;;5091930;28;20522;-78
2023/11/20 03:21:44;;;;;;;4.80;2.43;;;19.40;74.30;;;;;;5092496;28;20453;-78
2023/11/20 03:24:12;;;;;;;6.43;2.40;;;19.30;73.80;;;;;;5095749;28;20471;-78
2023/11/20 03:26:41;;;;;;;2.50;2.10;;;19.30;74.00;;;;;;5096204;28;20494;-77
2023/11/20 03:29:09;;;;;;;5.30;1.90;;;19.30;74.20;;;;;;5093206;28;20998;-77
2023/11/20 03:31:37;;;;;;;3.53;2.30;;;19.30;73.90;;;;;;5087278;28;20556;-77
2023/11/20 03:34:06;;;;;;;2.80;2.13;;;19.40;74.20;;;;;;5095901;28;20436;-77
2023/11/20 03:36:35;;;;;;;3.00;2.60;;;19.30;74.90;;;;;;5096054;28;20490;-78
2023/11/20 03:39:04;;;;;;;2.33;1.97;;;19.40;73.90;;;;;;5095291;28;20452;-78
2023/11/20 03:41:33;;;;;;;3.60;1.90;;;19.30;73.90;;;;;;5091716;28;20528;-77
2023/11/20 03:44:01;;;;;;;2.37;2.17;;;19.30;74.10;;;;;;5095955;28;20429;-77
2023/11/20 03:46:29;;;;;;;3.00;1.97;;;19.30;73.90;;;;;;5092740;28;20543;-78
2023/11/20 03:48:57;;;;;;;3.30;2.00;;;19.30;74.00;;;;;;5096015;28;20465;-78
2023/11/20 03:51:26;;;;;;;3.73;2.67;;;19.30;74.70;;;;;;5095788;28;20448;-78
2023/11/20 03:53:54;;;;;;;2.80;1.87;;;19.40;74.30;;;;;;5095793;28;20535;-78
2023/11/20 03:56:23;;;;;;;2.20;2.00;;;19.40;74.30;;;;;;5096962;28;20996;-78
2023/11/20 03:58:52;;;;;;;2.47;1.90;;;19.40;74.10;;;;;;5099379;28;20500;-78
2023/11/20 04:01:20;;;;;;;4.53;1.83;;;19.40;74.10;;;;;;5099768;28;20427;-78
2023/11/20 04:03:48;;;;;;;3.07;2.17;;;19.40;74.20;;;;;;5101121;28;20536;-78
2023/11/20 04:06:16;;;;;;;4.20;2.20;;;19.30;73.70;;;;;;5097710;28;20451;-78
2023/11/20 04:08:44;;;;;;;4.17;2.73;;;19.30;74.10;;;;;;5093992;28;20456;-79
2023/11/20 04:11:13;;;;;;;6.83;2.00;;;19.40;74.40;;;;;;5098988;28;20465;-78
2023/11/20 04:13:42;;;;;;;2.03;1.80;;;19.40;74.90;;;;;;5095772;28;20477;-78
2023/11/20 04:16:11;;;;;;;2.10;1.87;;;19.40;73.80;;;;;;5095874;28;20502;-78
2023/11/20 04:18:39;;;;;;;1.90;1.80;;;19.40;74.20;;;;;;5094918;28;20475;-78
2023/11/20 04:21:07;;;;;;;3.93;1.97;;;19.40;74.30;;;;;;5094871;28;20444;-78
2023/11/20 04:23:36;;;;;;;3.60;2.00;;;19.40;74.00;;;;;;5092475;28;20437;-78
2023/11/20 04:26:04;;;;;;;2.10;1.90;;;19.40;73.90;;;;;;5095462;28;20523;-78
2023/11/20 04:28:32;;;;;;;4.37;2.10;;;19.30;74.10;;;;;;5089284;28;20484;-77
2023/11/20 04:31:01;;;;;;;2.33;2.07;;;19.40;74.30;;;;;;5087481;28;20509;-78
2023/11/20 04:33:29;;;;;;;3.00;2.00;;;19.40;74.00;;;;;;5093902;28;20472;-78
2023/11/20 04:36:01;;;;;;;2.40;2.20;;;19.40;74.20;;;;;;5091399;28;20471;-77
2023/11/20 04:38:30;;;;;;;4.20;2.07;;;19.40;74.20;;;;;;5094408;28;20451;-78
2023/11/20 04:40:59;;;;;;;3.70;1.67;;;19.40;74.00;;;;;;5088954;28;20433;-78
2023/11/20 04:43:26;;;;;;;1.70;1.60;;;19.40;74.30;;;;;;5094483;28;20469;-78
2023/11/20 04:45:54;;;;;;;1.90;1.77;;;19.40;74.30;;;;;;5093536;28;20457;-78
2023/11/20 04:48:24;;;;;;;4.27;2.10;;;19.40;74.10;;;;;;5091010;28;20473;-78
2023/11/20 04:50:53;;;;;;;2.23;2.00;;;19.40;73.90;;;;;;5095644;28;20491;-78
2023/11/20 04:53:23;;;;;;;5.07;2.37;;;19.40;74.10;;;;;;5095366;28;20488;-77
2023/11/20 04:55:52;;;;;;;3.47;2.13;;;19.40;74.20;;;;;;5095001;28;20468;-78
2023/11/20 04:58:21;;;;;;;2.07;1.70;;;19.40;73.90;;;;;;5094280;28;20479;-77
2023/11/20 05:00:50;;;;;;;3.17;2.47;;;19.40;73.90;;;;;;5087368;28;20471;-77
2023/11/20 05:03:19;;;;;;;3.33;2.30;;;19.40;74.00;;;;;;5084622;28;20965;-78
2023/11/20 05:05:48;;;;;;;2.43;1.53;;;19.40;74.00;;;;;;5097290;28;20441;-78
2023/11/20 05:08:16;;;;;;;2.83;1.83;;;19.40;74.10;;;;;;5102536;28;20437;-77
2023/11/20 05:10:45;;;;;;;2.33;1.90;;;19.40;73.90;;;;;;5099588;28;20469;-78
2023/11/20 05:13:16;;;;;;;1.90;1.70;;;19.50;74.00;;;;;;5098481;28;20496;-78
2023/11/20 05:15:45;;;;;;;3.67;1.97;;;19.40;74.20;;;;;;5096591;28;20516;-78
2023/11/20 05:18:15;;;;;;;2.63;2.00;;;19.50;74.00;;;;;;5095413;28;20566;-77
2023/11/20 05:20:43;;;;;;;3.47;2.20;;;19.40;74.00;;;;;;5090374;28;20454;-78
2023/11/20 05:23:12;;;;;;;3.73;1.70;;;19.40;73.90;;;;;;5089074;28;20532;-78
2023/11/20 05:25:40;;;;;;;1.70;1.60;;;19.50;74.10;;;;;;5093637;28;20452;-78
2023/11/20 05:28:07;;;;;;;1.77;1.67;;;19.50;74.00;;;;;;5093717;28;20506;-78
2023/11/20 05:30:36;;;;;;;1.70;1.60;;;19.40;73.90;;;;;;5092686;28;20548;-78
2023/11/20 05:33:04;;;;;;;3.00;2.00;;;19.40;74.00;;;;;;5093492;28;20560;-77
2023/11/20 05:35:33;;;;;;;2.73;2.03;;;19.40;74.00;;;;;;5093417;28;20441;-78
2023/11/20 05:38:00;;;;;;;1.90;1.77;;;19.50;74.00;;;;;;5094196;28;21015;-77
2023/11/20 05:40:29;;;;;;;2.27;2.07;;;19.40;73.90;;;;;;5089075;28;20476;-75
2023/11/20 05:42:57;;;;;;;2.60;1.90;;;19.50;74.00;;;;;;5092385;28;20441;-75
2023/11/20 05:45:25;;;;;;;2.60;1.90;;;19.40;73.90;;;;;;5093228;28;20441;-74
2023/11/20 05:47:53;;;;;;;1.60;1.50;;;19.50;74.20;;;;;;5093429;28;20441;-75
2023/11/20 05:50:21;;;;;;;1.90;1.70;;;19.40;73.90;;;;;;5125418;22;20491;-75
2023/11/20 05:52:49;;;;;;;1.50;1.40;;;19.50;74.10;;;;;;5111625;28;20459;-75
2023/11/20 05:55:17;;;;;;;2.03;1.60;;;19.50;74.10;;;;;;5112323;28;20853;-75
2023/11/20 05:57:46;;;;;;;2.23;1.90;;;19.50;74.20;;;;;;5112305;28;20442;-75
2023/11/20 06:00:14;;;;;;;1.73;1.63;;;19.50;73.80;;;;;;5103131;27;21142;-75
2023/11/20 06:02:43;;;;;;;3.17;1.80;;;19.50;74.10;;;;;;5105833;28;20825;-75
2023/11/20 06:05:11;;;;;;;7.03;1.87;;;19.50;73.80;;;;;;5111152;28;20450;-76
2023/11/20 06:07:39;;;;;;;1.70;1.60;;;19.40;74.20;;;;;;5108856;27;20516;-76
2023/11/20 06:10:08;;;;;;;1.90;1.53;;;19.40;74.00;;;;;;5100267;27;20547;-75
2023/11/20 06:12:36;;;;;;;4.10;2.00;;;19.50;74.00;;;;;;5113895;27;20440;-75
2023/11/20 06:15:08;;;;;;;2.20;2.00;;;19.50;74.00;;;;;;5110617;27;20435;-75
2023/11/20 06:17:36;;;;;;;1.43;1.20;;;19.50;74.10;;;;;;5110204;28;20436;-75
2023/11/20 06:20:06;;;;;;;3.13;2.03;;;19.40;74.00;;;;;;5105980;28;20468;-75
2023/11/20 06:22:34;;;;;;;1.73;1.60;;;19.50;73.80;;;;;;5114674;28;20499;-76
2023/11/20 06:25:03;;;;;;;1.70;1.60;;;19.40;74.00;;;;;;5109116;28;20469;-76
2023/11/20 06:27:32;;;;;;;1.77;1.67;;;19.40;73.90;;;;;;5103446;28;20443;-76
2023/11/20 06:30:00;;;;;;;1.80;1.70;;;19.40;74.00;;;;;;5111629;28;20483;-75
2023/11/20 06:32:29;;;;;;;1.80;1.70;;;19.40;74.00;;;;;;5113414;28;20439;-76
2023/11/20 06:34:57;;;;;;;1.63;1.53;;;19.40;74.10;;;;;;5117512;28;20853;-76
2023/11/20 06:37:25;;;;;;;1.60;1.50;;;19.40;73.80;;;;;;5105713;28;20534;-76
2023/11/20 06:39:53;;;;;;;1.90;1.80;;;19.50;74.00;;;;;;5110333;28;20483;-76
2023/11/20 06:42:20;;;;;;;1.70;1.60;;;19.40;73.80;;;;;;5105922;28;20448;-75
2023/11/20 06:44:48;;;;;;;1.67;1.57;;;19.50;74.10;;;;;;5112818;28;20519;-75
2023/11/20 06:47:16;;;;;;;1.90;1.70;;;19.50;73.90;;;;;;5105294;28;20437;-75
2023/11/20 06:49:45;;;;;;;1.60;1.50;;;19.40;74.00;;;;;;5114950;28;20448;-75
2023/11/20 06:52:14;;;;;;;1.70;1.60;;;19.50;74.00;;;;;;5118083;28;20519;-75
2023/11/20 06:54:43;;;;;;;3.33;1.70;;;19.50;74.10;;;;;;5097962;28;20872;-75
2023/11/20 06:57:11;;;;;;;1.80;1.43;;;19.50;74.00;;;;;;5116335;28;20447;-75
2023/11/20 06:59:40;;;;;;;1.93;1.27;;;19.50;73.90;;;;;;5115849;28;20491;-75
2023/11/20 07:02:09;;;;;;;2.90;1.60;;;19.40;73.50;;;;;;5110900;28;20572;-75
2023/11/20 07:04:38;;;;;;;2.80;1.40;;;19.40;73.90;;;;;;5116565;27;20447;-75
2023/11/20 07:07:09;;;;;;;4.13;1.70;;;19.40;73.80;;;;;;5116173;28;20498;-75
2023/11/20 07:09:37;;;;;;;1.83;1.40;;;19.40;73.90;;;;;;5115389;28;20487;-75
2023/11/20 07:12:06;;;;;;;1.40;1.37;;;19.40;73.90;;;;;;5122684;27;20448;-75
2023/11/20 07:14:34;;;;;;;2.03;1.70;;;19.40;73.90;;;;;;5116681;27;20467;-76
2023/11/20 07:17:02;;;;;;;4.23;1.60;;;19.40;74.20;;;;;;5109585;27;20467;-76
2023/11/20 07:19:31;;;;;;;1.93;1.83;;;19.50;73.90;;;;;;5120234;27;20470;-76
2023/11/20 07:21:59;;;;;;;1.50;1.40;;;19.40;74.10;;;;;;5121191;27;20455;-75
2023/11/20 07:24:28;;;;;;;1.50;1.40;;;19.40;73.90;;;;;;5120150;27;20450;-75
2023/11/20 07:26:56;;;;;;;2.40;1.60;;;19.50;74.10;;;;;;5105994;27;20476;-76
2023/11/20 07:29:25;;;;;;;1.70;1.60;;;19.50;73.90;;;;;;5111684;27;20554;-76
2023/11/20 07:31:53;;;;;;;1.90;1.63;;;19.50;73.90;;;;;;5106566;28;20451;-75
2023/11/20 07:34:21;;;;;;;1.50;1.40;;;19.50;73.80;;;;;;5114184;28;20456;-75
2023/11/20 07:36:50;;;;;;;1.53;1.43;;;19.40;73.90;;;;;;5104690;28;20451;-75
2023/11/20 07:39:19;;;;;;;1.60;1.50;;;19.40;73.90;;;;;;5109730;28;20459;-75
2023/11/20 07:41:49;;;;;;;1.73;1.57;;;19.50;73.90;;;;;;5115236;28;20418;-75
2023/11/20 07:44:17;;;;;;;1.60;1.50;;;19.50;73.90;;;;;;5115978;27;20467;-75
2023/11/20 07:46:45;;;;;;;1.40;1.30;;;19.50;73.70;;;;;;5114520;28;20475;-75
2023/11/20 07:49:14;;;;;;;1.33;1.23;;;19.50;73.70;;;;;;5109784;27;20476;-75
2023/11/20 07:51:42;;;;;;;3.27;1.40;;;19.50;73.80;;;;;;5121081;27;20447;-75
2023/11/20 07:54:10;;;;;;;2.87;1.40;;;19.50;73.90;;;;;;5116943;27;20525;-76
2023/11/20 07:56:38;;;;;;;1.77;1.30;;;19.50;73.90;;;;;;5118645;27;20563;-76
2023/11/20 07:59:09;;;;;;;1.50;1.40;;;19.50;74.10;;;;;;5115041;27;20494;-76
2023/11/20 08:01:37;;;;;;;2.20;1.40;;;19.50;74.00;;;;;;5108130;28;20520;-75
2023/11/20 08:04:05;;;;;;;1.60;1.50;;;19.50;73.70;;;;;;5110757;27;20452;-76
2023/11/20 08:06:34;;;;;;;1.10;1.10;;;19.40;73.80;;;;;;5114903;27;20444;-76
2023/11/20 08:09:03;;;;;;;1.30;1.03;;;19.50;73.90;;;;;;5118189;27;20473;-76
2023/11/20 08:11:31;;;;;;;1.17;1.07;;;19.40;73.90;;;;;;5116433;28;20500;-76
2023/11/20 08:13:59;;;;;;;1.20;1.10;;;19.50;73.80;;;;;;5120966;27;20465;-76
2023/11/20 08:16:29;;;;;;;1.47;1.37;;;19.50;73.90;;;;;;5115802;27;20440;-76
2023/11/20 08:19:00;;;;;;;1.60;1.50;;;19.40;73.70;;;;;;5114619;28;20510;-76
2023/11/20 08:21:29;;;;;;;1.37;1.27;;;19.50;73.80;;;;;;5112407;28;20436;-76
2023/11/20 08:23:57;;;;;;;1.83;1.30;;;19.50;73.60;;;;;;5106057;28;20497;-76
2023/11/20 08:26:25;;;;;;;1.37;1.27;;;19.50;73.70;;;;;;5108455;28;20426;-76
2023/11/20 08:28:54;;;;;;;2.40;1.73;;;19.50;74.00;;;;;;5105316;28;20544;-76
2023/11/20 08:31:22;;;;;;;2.20;1.40;;;19.50;73.90;;;;;;5115132;28;20444;-76
2023/11/20 08:33:51;;;;;;;1.30;1.20;;;19.50;74.00;;;;;;5110560;27;20475;-76
2023/11/20 08:36:19;;;;;;;1.50;1.40;;;19.50;73.80;;;;;;5106680;28;20425;-76
2023/11/20 08:38:48;;;;;;;1.60;1.50;;;19.50;73.90;;;;;;5108747;27;20465;-76
2023/11/20 08:41:16;;;;;;;1.27;1.27;;;19.50;73.70;;;;;;5096136;28;20452;-75
2023/11/20 08:43:44;;;;;;;1.27;1.17;;;19.50;73.70;;;;;;5113170;27;20450;-75
2023/11/20 08:46:12;;;;;;;1.43;1.20;;;19.50;73.80;;;;;;5107776;28;20493;-75
2023/11/20 08:48:43;;;;;;;1.70;1.53;;;19.50;73.90;;;;;;5112775;28;20444;-76
2023/11/20 08:51:12;;;;;;;1.23;1.13;;;19.50;73.70;;;;;;5113104;28;20455;-76
2023/11/20 08:53:40;;;;;;;3.23;1.37;;;19.50;73.80;;;;;;5116383;27;20478;-76
2023/11/20 08:56:09;;;;;;;1.27;1.17;;;19.50;73.90;;;;;;5118729;27;20470;-75
2023/11/20 08:58:37;;;;;;;1.30;1.20;;;19.50;73.50;;;;;;5119096;27;20478;-75
2023/11/20 09:01:05;;;;;;;1.20;1.10;;;19.50;73.80;;;;;;5107360;27;20530;-75
2023/11/20 09:03:33;;;;;;;1.50;1.40;;;19.50;73.60;;;;;;5108569;27;20497;-75
2023/11/20 09:06:01;;;;;;;1.27;1.20;;;19.50;73.50;;;;;;5107685;28;20440;-76
2023/11/20 09:08:32;;;;;;;1.50;1.40;;;19.50;73.80;;;;;;5114354;27;20448;-76
2023/11/20 09:11:00;;;;;;;1.40;1.30;;;19.50;73.70;;;;;;5116280;27;20519;-76
2023/11/20 09:13:28;;;;;;;2.10;1.50;;;19.50;73.80;;;;;;5108246;28;20543;-76
2023/11/20 09:15:56;;;;;;;1.33;1.23;;;19.50;73.70;;;;;;5111104;28;20468;-76
2023/11/20 09:18:25;;;;;;;1.20;1.10;;;19.50;73.80;;;;;;5112358;28;20436;-76
2023/11/20 09:20:53;;;;;;;1.40;1.30;;;19.50;73.60;;;;;;5110581;27;20478;-76
2023/11/20 09:23:21;;;;;;;1.30;1.17;;;19.50;73.90;;;;;;5110507;28;20463;-76
2023/11/20 09:25:50;;;;;;;1.37;1.27;;;19.50;73.70;;;;;;5108555;28;20496;-76
2023/11/20 09:28:18;;;;;;;1.27;1.17;;;19.50;73.70;;;;;;5112206;28;20428;-76
2023/11/20 09:30:47;;;;;;;1.53;1.10;;;19.50;73.60;;;;;;5107166;28;20455;-77
2023/11/20 09:33:14;;;;;;;1.10;1.10;;;19.50;73.60;;;;;;5106342;27;20436;-76
2023/11/20 09:35:43;;;;;;;1.00;1.00;;;19.50;73.60;;;;;;5117864;27;20468;-76
2023/11/20 09:38:11;;;;;;;0.80;0.80;;;19.50;73.60;;;;;;5115032;27;20440;-76
2023/11/20 09:40:42;;;;;;;1.00;1.00;;;19.50;73.30;;;;;;5108776;28;21045;-76
2023/11/20 09:43:12;;;;;;;1.40;1.30;;;19.50;73.60;;;;;;5111712;28;20454;-76
2023/11/20 09:45:41;;;;;;;1.20;1.10;;;19.50;73.00;;;;;;5111436;28;20447;-76
2023/11/20 09:48:20;;;;;;;1.40;1.30;;;19.50;73.60;;;;;;5109644;27;20541;-76
2023/11/20 09:50:48;;;;;;;1.00;1.00;;;19.50;73.60;;;;;;5111515;28;20467;-75
2023/11/20 09:53:38;;;;;;;1.23;1.10;;;19.50;73.60;;;;;;5106734;27;20454;-76
2023/11/20 09:56:09;;;;;;;1.80;1.40;;;19.60;73.20;;;;;;5113238;27;20478;-78
2023/11/20 09:58:42;;;;;;;1.30;1.20;;;19.60;73.60;;;;;;5117368;27;20449;-76
2023/11/20 10:01:13;;;;;;;1.17;1.17;;;19.60;73.40;;;;;;5110442;28;20446;-76
2023/11/20 10:03:43;;;;;;;1.03;1.03;;;19.60;73.60;;;;;;5109109;27;20448;-76
2023/11/20 10:06:15;;;;;;;1.20;1.10;;;19.60;73.40;;;;;;5102283;28;20808;-77
2023/11/20 10:08:44;;;;;;;1.13;1.10;;;19.60;73.20;;;;;;5107632;28;20530;-77
2023/11/20 10:11:13;;;;;;;1.73;1.07;;;19.60;73.40;;;;;;5103686;28;20504;-76
2023/11/20 10:13:42;;;;;;;1.17;1.07;;;19.60;73.10;;;;;;5109538;27;20467;-75
2023/11/20 10:16:19;;;;;;;0.90;0.90;;;19.60;73.30;;;;;;5112668;27;20539;-77
2023/11/20 10:18:49;;;;;;;1.20;1.13;;;19.60;72.90;;;;;;5105666;28;20497;-76
2023/11/20 10:21:19;;;;;;;1.07;0.90;;;19.60;73.10;;;;;;5112299;28;20448;-75
2023/11/20 10:23:51;;;;;;;1.50;1.00;;;19.60;73.00;;;;;;5103592;28;20458;-76
2023/11/20 10:26:19;;;;;;;1.20;1.10;;;19.60;72.70;;;;;;5123317;27;20467;-75
2023/11/20 10:28:49;;;;;;;1.30;1.20;;;19.60;72.70;;;;;;5102557;28;20444;-75
2023/11/20 10:31:17;;;;;;;1.33;1.23;;;19.60;73.00;;;;;;5108586;28;20462;-75
2023/11/20 10:33:45;;;;;;;1.17;0.97;;;19.60;72.50;;;;;;5109090;28;20489;-75
2023/11/20 10:36:14;;;;;;;1.17;1.00;;;19.60;72.70;;;;;;5115009;28;20486;-75
2023/11/20 10:38:43;;;;;;;1.10;1.10;;;19.70;72.70;;;;;;5113997;28;20435;-75
2023/11/20 10:41:11;;;;;;;1.20;1.10;;;19.70;72.70;;;;;;5105508;28;20444;-76
2023/11/20 10:43:40;;;;;;;1.20;1.10;;;19.70;72.60;;;;;;5105940;28;20453;-76
2023/11/20 10:46:11;;;;;;;2.90;1.07;;;19.70;72.10;;;;;;5110689;28;20523;-75
2023/11/20 10:48:39;;;;;;;2.50;1.57;;;19.70;72.60;;;;;;5110624;28;20447;-76
2023/11/20 10:51:08;;;;;;;2.00;1.30;;;19.70;72.50;;;;;;5111624;28;20524;-75
2023/11/20 10:53:38;;;;;;;1.40;1.20;;;19.70;72.10;;;;;;5112900;28;20435;-75
2023/11/20 10:56:07;;;;;;;1.40;1.30;;;19.70;72.60;;;;;;5100479;28;20474;-75
2023/11/20 10:58:35;;;;;;;2.10;1.30;;;19.70;72.20;;;;;;5110397;28;20448;-75
2023/11/20 11:01:03;;;;;;;1.10;1.07;;;19.70;72.30;;;;;;5097072;28;20524;-75
2023/11/20 11:03:32;;;;;;;2.30;1.33;;;19.70;71.90;;;;;;5109417;28;20443;-75
2023/11/20 11:06:03;;;;;;;2.90;1.57;;;19.70;72.40;;;;;;5105933;28;20533;-75
2023/11/20 11:08:31;;;;;;;2.40;1.50;;;19.70;71.90;;;;;;5107115;28;20508;-75
2023/11/20 11:11:00;;;;;;;2.40;1.47;;;19.70;71.80;;;;;;5103301;28;20562;-75
2023/11/20 11:13:31;;;;;;;3.00;1.23;;;19.70;72.10;;;;;;5098585;28;20479;-75
2023/11/20 11:16:00;;;;;;;1.40;1.17;;;19.70;72.10;;;;;;5104143;28;20558;-76
2023/11/20 11:18:30;;;;;;;1.30;1.20;;;19.70;71.90;;;;;;5104993;28;20443;-75
2023/11/20 11:21:00;;;;;;;4.00;1.70;;;19.70;71.90;;;;;;5099439;28;20448;-74
2023/11/20 11:23:30;;;;;;;4.07;1.30;;;19.80;72.10;;;;;;5110241;28;20477;-76
2023/11/20 11:26:10;;;;;;;3.20;1.53;;;19.80;71.40;;;;;;5105816;28;20461;-75
2023/11/20 11:28:39;;;;;;;3.10;1.50;;;19.80;71.50;;;;;;5102201;28;20524;-80
2023/11/20 11:31:08;;;;;;;2.03;1.33;;;19.70;71.50;;;;;;5097350;28;20468;-75
2023/11/20 11:34:00;;;;;;;3.07;1.23;;;19.70;71.30;;;;;;5104960;28;20527;-75
2023/11/20 11:36:32;;;;;;;2.10;1.70;;;19.70;71.70;;;;;;5106351;28;20467;-75
2023/11/20 11:39:09;;;;;;;3.43;1.50;;;19.70;71.70;;;;;;5104392;28;20542;-75
2023/11/20 11:41:47;;;;;;;6.23;1.80;;;19.80;72.00;;;;;;5104471;28;20504;-75
2023/11/20 11:44:20;;;;;;;2.50;1.30;;;19.80;71.70;;;;;;5103078;28;20447;-75
2023/11/20 11:46:50;;;;;;;2.13;1.30;;;19.80;71.90;;;;;;5113380;27;20527;-75
2023/11/20 11:49:20;;;;;;;5.33;2.00;;;19.80;71.60;;;;;;5128791;22;20476;-77
2023/11/20 11:51:50;;;;;;;2.90;1.40;;;19.80;71.80;;;;;;5071244;28;20454;-78
2023/11/20 11:54:18;;;;;;;2.47;1.67;;;19.80;71.90;;;;;;5070494;28;20502;-74
2023/11/20 11:56:59;;;;;;;2.30;1.67;;;19.80;72.00;;;;;;5071563;28;20986;-75
2023/11/20 11:59:38;;;;;;;5.37;1.87;;;19.80;71.90;;;;;;5068951;28;20481;-75
2023/11/20 12:02:06;;;;;;;3.47;1.30;;;19.80;71.60;;;;;;5068759;28;20481;-75
2023/11/20 12:05:03;;;;;;;3.67;1.93;;;19.80;72.10;;;;;;5071438;28;20452;-75
2023/11/20 12:07:54;;;;;;;4.80;1.80;;;19.80;71.80;;;;;;5073131;28;20442;-75
2023/11/20 12:10:55;;;;;;;8.33;1.60;;;19.80;72.10;;;;;;5071206;28;20560;-75
2023/11/20 12:13:23;;;;;;;1.80;1.40;;;19.80;72.20;;;;;;5068955;28;20453;-75
2023/11/20 12:15:52;;;;;;;2.87;1.60;;;19.80;72.00;;;;;;5065983;28;20961;-76
2023/11/20 12:18:21;;;;;;;6.70;2.00;;;19.80;71.90;;;;;;5071078;28;20517;-75
2023/11/20 12:21:04;;;;;;;5.80;2.20;;;19.80;72.20;;;;;;5067245;28;20476;-73
2023/11/20 12:23:34;;;;;;;4.90;2.30;;;19.80;71.90;;;;;;5063176;28;20484;-75
2023/11/20 12:26:02;;;;;;;2.30;1.60;;;19.80;72.00;;;;;;5071062;28;20485;-75
2023/11/20 12:28:32;;;;;;;4.60;2.37;;;19.90;71.90;;;;;;5062323;28;20511;-75
2023/11/20 12:31:03;;;;;;;2.23;1.83;;;19.90;72.10;;;;;;5067543;28;20465;-76
2023/11/20 12:33:32;;;;;;;2.40;2.20;;;19.80;71.70;;;;;;5069794;28;20465;-76
2023/11/20 12:36:01;;;;;;;3.27;2.20;;;19.80;71.90;;;;;;5071559;28;20449;-77
2023/11/20 12:38:30;;;;;;;4.77;2.33;;;19.80;71.90;;;;;;5070723;28;20524;-76
2023/11/20 12:41:03;;;;;;;3.83;2.13;;;19.80;72.10;;;;;;5064829;28;20459;-77
2023/11/20 12:43:32;;;;;;;8.07;3.60;;;19.80;72.10;;;;;;5066814;28;20442;-77
2023/11/20 12:46:04;;;;;;;3.63;2.37;;;19.80;72.30;;;;;;5068220;28;20441;-76
2023/11/20 12:48:32;;;;;;;6.70;3.10;;;19.80;72.10;;;;;;5071414;28;20434;-77
2023/11/20 12:51:01;;;;;;;4.30;2.50;;;19.80;72.40;;;;;;5070791;28;20481;-77
2023/11/20 12:53:29;;;;;;;5.50;2.73;;;19.80;72.60;;;;;;5067580;28;20507;-77
2023/11/20 12:55:57;;;;;;;3.63;2.70;;;19.90;72.40;;;;;;5065655;28;20522;-75
2023/11/20 12:58:28;;;;;;;2.90;2.43;;;19.90;71.90;;;;;;5071457;28;20480;-77